createdAt,value
2022-11-05T00:02:27.637Z,23.27
2022-11-05T00:05:13.839Z,20.37
2022-11-05T00:08:04.375Z,21.05
2022-11-05T00:10:32.668Z,20.03
2022-11-05T00:13:19.306Z,21.67
2022-11-05T00:16:05.303Z,19.32
2022-11-05T00:18:33.529Z,21.62
2022-11-05T00:21:01.676Z,20.43
2022-11-05T00:23:47.800Z,19.95
2022-11-05T00:26:16.102Z,19.35
2022-11-05T00:28:44.543Z,22.55
2022-11-05T00:31:13.730Z,19.45
2022-11-05T00:33:43.239Z,18.27
2022-11-05T00:36:12.141Z,17.87
2022-11-05T00:38:40.333Z,20.17
2022-11-05T00:41:08.565Z,17.87
2022-11-05T00:43:54.684Z,21.42
2022-11-05T00:46:23.166Z,18.85
2022-11-05T00:49:09.278Z,19.82
2022-11-05T00:51:37.477Z,20.20
2022-11-05T00:54:05.671Z,19.20
2022-11-05T00:56:33.807Z,17.20
2022-11-05T00:59:02.035Z,19.67
2022-11-05T01:01:30.489Z,20.40
2022-11-05T01:03:58.739Z,19.45
2022-11-05T01:06:26.964Z,18.00
2022-11-05T01:08:56.439Z,17.02
2022-11-05T01:11:33.900Z,14.38
2022-11-05T01:14:04.002Z,18.85
2022-11-05T01:16:32.493Z,15.65
2022-11-05T01:19:01.375Z,16.25
2022-11-05T01:21:29.650Z,19.23
2022-11-05T01:23:57.883Z,17.23
2022-11-05T01:26:26.745Z,17.42
2022-11-05T01:28:55.955Z,17.82
2022-11-05T01:31:24.623Z,16.40
2022-11-05T01:33:52.899Z,17.90
2022-11-05T01:36:21.108Z,18.50
2022-11-05T01:38:49.317Z,18.10
2022-11-05T01:41:17.535Z,16.60
2022-11-05T01:43:54.314Z,17.27
2022-11-05T01:46:24.126Z,18.83
2022-11-05T01:48:58.637Z,17.75
2022-11-05T01:51:25.406Z,15.88
2022-11-05T01:53:55.173Z,15.53
2022-11-05T01:56:27.862Z,16.45
2022-11-05T01:59:00.628Z,17.27
2022-11-05T02:01:28.960Z,17.23
2022-11-05T02:03:58.735Z,21.62
2022-11-05T02:06:32.863Z,18.02
2022-11-05T02:09:05.290Z,17.85
2022-11-05T02:11:36.834Z,18.40
2022-11-05T02:14:05.482Z,17.10
2022-11-05T02:16:50.486Z,17.57
2022-11-05T02:19:36.671Z,18.17
2022-11-05T02:22:24.777Z,17.60
2022-11-05T02:25:11.125Z,16.82
2022-11-05T02:27:43.407Z,16.90
2022-11-05T02:30:28.388Z,16.82
2022-11-05T02:33:15.552Z,20.07
2022-11-05T02:35:48.211Z,17.20
2022-11-05T02:38:22.536Z,15.80
2022-11-05T02:41:08.967Z,18.00
2022-11-05T02:43:50.608Z,17.70
2022-11-05T02:46:20.357Z,16.48
2022-11-05T02:48:54.894Z,17.90
2022-11-05T02:51:33.610Z,17.48
2022-11-05T02:54:18.647Z,17.92
2022-11-05T02:56:48.006Z,16.07
2022-11-05T02:59:16.209Z,17.82
2022-11-05T03:01:46.273Z,16.42
2022-11-05T03:04:16.282Z,17.62
2022-11-05T03:07:08.296Z,18.25
2022-11-05T03:09:54.645Z,18.07
2022-11-05T03:12:30.273Z,15.98
2022-11-05T03:15:05.851Z,14.70
2022-11-05T03:17:50.822Z,14.40
2022-11-05T03:20:20.575Z,15.63
2022-11-05T03:22:50.325Z,12.63
2022-11-05T03:25:20.376Z,15.97
2022-11-05T03:27:49.103Z,14.05
2022-11-05T03:30:18.784Z,12.43
2022-11-05T03:32:55.953Z,14.98
2022-11-05T03:35:25.682Z,14.68
2022-11-05T03:37:58.423Z,13.55
2022-11-05T03:40:26.896Z,15.45
2022-11-05T03:43:01.272Z,14.70
2022-11-05T03:45:28.063Z,15.68
2022-11-05T03:47:57.789Z,15.18
2022-11-05T03:50:41.053Z,15.28
2022-11-05T03:53:17.410Z,14.38
2022-11-05T03:55:47.238Z,14.10
2022-11-05T03:58:16.209Z,15.23
2022-11-05T04:00:44.507Z,14.53
2022-11-05T04:03:13.129Z,17.57
2022-11-05T04:05:41.552Z,15.00
2022-11-05T04:08:28.806Z,14.85
2022-11-05T04:11:14.811Z,17.55
2022-11-05T04:13:43.035Z,15.38
2022-11-05T04:16:29.071Z,12.33
2022-11-05T04:18:57.287Z,15.50
2022-11-05T04:21:43.397Z,13.13
2022-11-05T04:24:12.606Z,15.15
2022-11-05T04:26:43.456Z,14.40
2022-11-05T04:29:30.370Z,13.80
2022-11-05T04:31:58.583Z,14.73
2022-11-05T04:34:26.785Z,13.98
2022-11-05T04:36:55.070Z,16.25
2022-11-05T04:39:23.303Z,15.47
2022-11-05T04:41:51.517Z,16.63
2022-11-05T04:44:19.733Z,15.10
2022-11-05T04:46:47.931Z,17.35
2022-11-05T04:49:16.146Z,15.45
2022-11-05T04:51:45.925Z,16.97
2022-11-05T04:54:14.120Z,16.47
2022-11-05T04:56:42.330Z,15.70
2022-11-05T04:59:10.535Z,13.40
2022-11-05T05:01:38.860Z,16.00
2022-11-05T05:04:07.167Z,16.30
2022-11-05T05:06:35.412Z,17.07
2022-11-05T05:09:03.693Z,16.32
2022-11-05T05:11:31.921Z,14.98
2022-11-05T05:14:00.133Z,15.00
2022-11-05T05:16:28.408Z,13.32
2022-11-05T05:18:59.526Z,16.15
2022-11-05T05:21:39.662Z,14.13
2022-11-05T05:24:15.082Z,17.50
2022-11-05T05:26:44.770Z,18.07
2022-11-05T05:29:17.614Z,15.45
2022-11-05T05:31:45.883Z,15.63
2022-11-05T05:34:20.415Z,17.33
2022-11-05T05:36:44.338Z,18.65
2022-11-05T05:39:13.625Z,17.25
2022-11-05T05:41:41.822Z,18.80
2022-11-05T05:44:10.022Z,19.02
2022-11-05T05:46:38.253Z,16.60
2022-11-05T05:49:11.245Z,18.87
2022-11-05T05:51:36.307Z,16.17
2022-11-05T05:54:04.590Z,15.43
2022-11-05T05:56:35.875Z,18.90
2022-11-05T05:59:05.529Z,17.93
2022-11-05T06:01:33.720Z,18.23
2022-11-05T06:04:02.218Z,18.37
2022-11-05T06:06:30.431Z,18.23
2022-11-05T06:08:58.643Z,19.00
2022-11-05T06:11:26.865Z,19.25
2022-11-05T06:13:55.125Z,20.12
2022-11-05T06:16:23.259Z,19.92
2022-11-05T06:18:52.067Z,18.77
2022-11-05T06:21:20.282Z,18.57
2022-11-05T06:23:49.642Z,19.25
2022-11-05T06:26:20.029Z,19.32
2022-11-05T06:28:48.325Z,21.65
2022-11-05T06:31:16.517Z,18.02
2022-11-05T06:33:44.733Z,19.62
2022-11-05T06:36:14.477Z,21.65
2022-11-05T06:38:42.720Z,20.30
2022-11-05T06:41:11.103Z,28.10
2022-11-05T06:43:39.377Z,29.70
2022-11-05T06:46:07.578Z,30.37
2022-11-05T06:48:35.901Z,29.57
2022-11-05T06:51:04.107Z,24.83
2022-11-05T06:53:32.496Z,22.77
2022-11-05T06:56:05.012Z,20.97
2022-11-05T06:58:33.609Z,19.77
2022-11-05T07:01:02.906Z,21.55
2022-11-05T07:03:31.338Z,20.23
2022-11-05T07:06:00.563Z,20.37
2022-11-05T07:08:32.444Z,19.57
2022-11-05T07:11:01.049Z,19.70
2022-11-05T07:13:29.266Z,21.42
2022-11-05T07:15:57.462Z,19.50
2022-11-05T07:18:25.879Z,23.55
2022-11-05T07:20:58.447Z,23.10
2022-11-05T07:23:26.727Z,19.07
2022-11-05T07:25:54.930Z,16.65
2022-11-05T07:28:23.169Z,17.62
2022-11-05T07:30:51.393Z,16.50
2022-11-05T07:33:19.598Z,16.07
2022-11-05T07:35:47.859Z,18.35
2022-11-05T07:38:35.432Z,15.72
2022-11-05T07:41:03.675Z,15.50
2022-11-05T07:43:31.886Z,17.10
2022-11-05T07:46:19.439Z,16.50
2022-11-05T07:48:47.644Z,15.98
2022-11-05T07:51:15.852Z,15.75
2022-11-05T07:53:45.422Z,16.80
2022-11-05T07:56:13.983Z,16.45
2022-11-05T07:58:42.186Z,18.02
2022-11-05T08:01:10.507Z,14.70
2022-11-05T08:03:38.794Z,16.93
2022-11-05T08:06:07.046Z,18.35
2022-11-05T08:08:35.347Z,18.37
2022-11-05T08:11:05.161Z,19.52
2022-11-05T08:13:33.533Z,18.90
2022-11-05T08:16:02.072Z,15.85
2022-11-05T08:18:33.837Z,17.52
2022-11-05T08:23:30.834Z,13.83
2022-11-05T08:25:59.502Z,15.98
2022-11-05T08:28:27.701Z,15.25
2022-11-05T08:30:56.697Z,14.60
2022-11-05T08:33:25.268Z,15.50
2022-11-05T08:35:53.558Z,16.30
2022-11-05T08:38:21.798Z,17.48
2022-11-05T08:40:57.651Z,16.27
2022-11-05T08:43:46.620Z,16.30
2022-11-05T08:46:14.910Z,18.30
2022-11-05T08:48:43.101Z,14.73
2022-11-05T08:51:11.355Z,15.40
2022-11-05T08:53:42.522Z,16.42
2022-11-05T08:56:10.717Z,17.30
2022-11-05T08:58:41.475Z,15.15
2022-11-05T09:01:09.937Z,14.03
2022-11-05T09:03:38.712Z,15.48
2022-11-05T09:06:07.094Z,15.32
2022-11-05T09:08:35.295Z,13.30
2022-11-05T09:11:03.503Z,11.53
2022-11-05T09:13:31.718Z,11.90
2022-11-05T09:15:59.998Z,10.00
2022-11-05T09:18:28.760Z,13.72
2022-11-05T09:20:56.972Z,14.28
2022-11-05T09:23:25.185Z,10.35
2022-11-05T09:25:53.388Z,12.90
2022-11-05T09:28:23.630Z,13.18
2022-11-05T11:56:09.130Z,7.10
2022-11-05T11:58:41.064Z,5.67
2022-11-05T12:01:16.590Z,6.40
2022-11-05T12:03:52.438Z,4.73
2022-11-05T12:06:28.292Z,7.47
2022-11-05T12:09:06.403Z,5.92
2022-11-05T12:11:48.707Z,5.47
2022-11-05T12:14:24.174Z,6.37
2022-11-05T12:16:53.933Z,5.62
2022-11-05T12:19:23.778Z,5.50
2022-11-05T12:22:02.456Z,7.42
2022-11-05T12:24:34.864Z,6.08
2022-11-05T12:27:13.793Z,5.53
2022-11-05T12:29:52.669Z,5.03
2022-11-05T12:32:28.663Z,4.22
2022-11-05T12:34:58.492Z,5.78
2022-11-05T12:37:28.531Z,7.50
2022-11-05T12:40:01.313Z,5.53
2022-11-05T12:42:40.288Z,6.75
2022-11-05T12:45:13.113Z,6.07
2022-11-05T12:47:52.025Z,5.95
2022-11-05T12:50:24.656Z,5.42
2022-11-05T12:53:11.365Z,6.20
2022-11-05T12:55:47.126Z,5.47
2022-11-05T12:58:12.591Z,7.00
2022-11-05T13:00:42.411Z,6.07
2022-11-05T13:03:21.129Z,7.10
2022-11-05T13:05:50.893Z,6.87
2022-11-05T13:08:20.641Z,6.37
2022-11-05T13:10:56.342Z,6.65
2022-11-05T13:13:28.801Z,7.43
2022-11-05T13:15:58.559Z,5.77
2022-11-05T13:18:28.894Z,6.50
2022-11-05T13:20:57.162Z,5.77
2022-11-05T13:23:32.842Z,4.97
2022-11-05T13:26:02.624Z,6.35
2022-11-05T13:28:35.104Z,5.87
2022-11-05T13:31:05.345Z,5.25
2022-11-05T13:33:38.049Z,4.85
2022-11-05T13:36:25.853Z,7.03
2022-11-05T13:39:02.405Z,5.95
2022-11-05T13:41:35.110Z,4.67
2022-11-05T13:44:05.080Z,4.58
2022-11-05T13:46:51.631Z,4.25
2022-11-05T13:49:24.267Z,4.85
2022-11-05T13:51:54.183Z,4.87
2022-11-05T13:54:27.106Z,7.85
2022-11-05T13:57:12.063Z,3.85
2022-11-05T13:59:44.861Z,3.85
2022-11-05T14:02:23.787Z,3.08
2022-11-05T14:04:59.588Z,3.20
2022-11-05T14:07:35.014Z,5.17
2022-11-05T14:10:07.792Z,4.30
2022-11-05T14:12:37.568Z,3.10
2022-11-05T14:15:09.203Z,6.33
2022-11-05T14:17:55.738Z,6.33
2022-11-05T14:20:25.480Z,5.58
2022-11-05T14:22:53.876Z,4.67
2022-11-05T14:25:25.335Z,4.43
2022-11-05T14:27:53.529Z,6.30
2022-11-05T14:30:41.235Z,5.25
2022-11-05T14:33:14.779Z,4.03
2022-11-05T14:35:43.244Z,4.20
2022-11-05T14:38:28.040Z,3.47
2022-11-05T14:40:59.872Z,4.08
2022-11-05T14:43:29.354Z,3.77
2022-11-05T14:46:02.164Z,3.35
2022-11-05T14:50:57.965Z,3.87
2022-11-05T14:53:30.680Z,3.42
2022-11-05T14:58:33.854Z,3.52
2022-11-05T15:01:04.391Z,3.08
2022-11-05T15:03:56.390Z,8.18
2022-11-05T15:06:26.296Z,5.55
2022-11-05T15:09:19.126Z,5.28
2022-11-05T15:11:56.788Z,4.12
2022-11-05T15:14:29.656Z,8.88
2022-11-05T15:17:09.980Z,4.42
2022-11-05T15:19:39.329Z,5.33
2022-11-05T15:22:20.116Z,4.00
2022-11-05T15:30:33.590Z,3.12
2022-11-05T15:33:29.593Z,3.27
2022-11-05T15:35:59.430Z,4.05
2022-11-05T15:38:33.648Z,4.42
2022-11-05T15:41:06.286Z,4.22
2022-11-05T15:43:34.930Z,4.15
2022-11-05T15:46:04.881Z,8.05
2022-11-05T15:48:33.806Z,5.95
2022-11-05T15:51:02.374Z,4.42
2022-11-05T15:54:24.292Z,4.83
2022-11-05T15:59:54.881Z,5.15
2022-11-05T16:08:53.397Z,2.98
2022-11-05T16:11:34.851Z,4.17
2022-11-05T16:17:53.680Z,5.12
2022-11-05T16:20:24.515Z,4.60
2022-11-05T16:26:04.479Z,3.98
2022-11-05T16:28:38.013Z,4.35
2022-11-05T16:31:23.663Z,5.35
2022-11-05T16:37:29.712Z,8.70
2022-11-05T16:40:12.382Z,5.33
2022-11-05T16:43:01.270Z,4.55
2022-11-05T16:45:27.504Z,5.58
2022-11-05T16:54:10.639Z,6.30
2022-11-05T16:57:24.933Z,5.92
2022-11-05T17:02:57.142Z,6.40
2022-11-05T17:08:38.245Z,4.67
2022-11-05T17:17:23.122Z,3.67
2022-11-05T17:22:50.711Z,4.97
2022-11-05T17:25:19.075Z,4.92
2022-11-05T17:27:47.300Z,8.30
2022-11-05T17:30:15.491Z,3.33
2022-11-05T17:32:43.777Z,4.55
2022-11-05T17:35:13.572Z,5.58
2022-11-05T17:37:41.963Z,5.15
2022-11-05T17:40:11.739Z,4.70
2022-11-05T17:42:39.951Z,6.85
2022-11-05T17:45:08.493Z,7.50
2022-11-05T17:47:36.630Z,5.47
2022-11-05T17:50:05.417Z,3.55
2022-11-05T17:52:33.673Z,3.95
2022-11-05T17:55:02.047Z,6.25
2022-11-05T17:57:30.269Z,9.05
2022-11-05T17:59:58.463Z,6.28
2022-11-05T18:02:28.385Z,5.20
2022-11-05T18:04:57.693Z,6.67
2022-11-05T18:07:28.479Z,9.95
2022-11-05T18:09:57.362Z,5.60
2022-11-05T18:12:26.421Z,7.25
2022-11-05T18:14:55.521Z,9.40
2022-11-05T18:17:23.704Z,7.08
2022-11-05T18:19:51.906Z,5.28
2022-11-05T18:22:20.046Z,7.28
2022-11-05T18:24:51.504Z,4.28
2022-11-05T18:28:12.975Z,5.47
2022-11-05T18:30:02.817Z,6.53
2022-11-05T18:35:36.770Z,6.25
2022-11-05T18:38:06.667Z,5.15
2022-11-05T18:40:38.180Z,5.75
2022-11-05T18:43:06.370Z,6.37
2022-11-05T18:45:34.832Z,8.68
2022-11-05T18:48:03.534Z,7.28
2022-11-05T18:53:27.499Z,8.50
2022-11-05T18:56:07.916Z,9.55
2022-11-05T18:58:42.289Z,8.95
2022-11-05T19:07:54.830Z,7.58
2022-11-05T19:16:16.146Z,6.45
2022-11-05T19:21:05.691Z,10.80
2022-11-05T19:21:20.404Z,6.75
2022-11-05T19:23:59.287Z,6.17
2022-11-05T19:26:35.669Z,6.97
2022-11-05T19:29:13.003Z,7.30
2022-11-05T19:31:50.148Z,7.22
2022-11-05T19:37:20.420Z,6.40
2022-11-05T19:39:55.912Z,11.43
2022-11-05T19:42:25.978Z,9.20
2022-11-05T19:44:54.378Z,8.65
2022-11-05T19:47:22.867Z,6.87
2022-11-05T19:53:09.521Z,8.45
2022-11-05T19:55:40.395Z,9.90
2022-11-05T19:58:19.958Z,10.18
2022-11-05T20:00:48.298Z,7.12
2022-11-05T20:03:18.074Z,9.48
2022-11-05T20:05:46.272Z,8.08
2022-11-05T20:08:14.803Z,5.58
2022-11-05T20:10:43.306Z,6.50
2022-11-05T20:13:17.023Z,6.72
2022-11-05T20:15:41.985Z,6.53
2022-11-05T20:18:25.312Z,6.67
2022-11-05T20:21:30.460Z,5.40
2022-11-05T20:24:07.524Z,5.83
2022-11-05T20:26:51.191Z,9.58
2022-11-05T20:35:14.115Z,9.15
2022-11-05T20:37:48.552Z,7.72
2022-11-05T20:40:24.358Z,5.55
2022-11-05T20:43:12.079Z,9.25
2022-11-05T20:48:33.518Z,12.05
2022-11-05T20:51:12.485Z,8.13
2022-11-05T20:53:46.999Z,6.67
2022-11-05T20:56:28.302Z,6.50
2022-11-05T20:58:58.561Z,8.73
2022-11-05T21:01:40.093Z,7.50
2022-11-05T21:04:11.221Z,8.18
2022-11-05T21:06:39.210Z,6.65
2022-11-05T21:09:13.384Z,7.72
2022-11-05T21:14:57.079Z,6.95
2022-11-05T21:17:25.319Z,11.22
2022-11-05T21:19:53.501Z,7.12
2022-11-05T21:22:21.725Z,9.25
2022-11-05T21:24:50.562Z,12.28
2022-11-05T21:27:18.806Z,14.15
2022-11-05T21:29:47.008Z,11.57
2022-11-05T21:32:15.124Z,8.60
2022-11-05T21:34:43.323Z,12.23
2022-11-05T21:37:11.471Z,12.88
2022-11-05T21:39:39.665Z,32.75
2022-11-05T21:42:07.810Z,16.65
2022-11-05T21:44:36.013Z,21.48
2022-11-05T21:47:04.608Z,40.70
2022-11-05T21:49:34.699Z,44.67
2022-11-05T21:52:20.917Z,25.45
2022-11-05T21:55:07.789Z,19.98
2022-11-05T21:57:54.239Z,9.03
2022-11-05T22:00:22.411Z,9.23
2022-11-05T22:02:50.721Z,8.10
2022-11-05T22:05:19.155Z,8.83
2022-11-05T22:07:47.474Z,11.85
2022-11-05T22:10:17.050Z,18.05
2022-11-05T22:12:45.926Z,8.00
2022-11-05T22:15:14.370Z,7.45
2022-11-05T22:17:46.518Z,8.55
2022-11-05T22:20:12.435Z,6.30
2022-11-05T22:22:40.647Z,6.15
2022-11-05T22:25:09.435Z,6.35
2022-11-05T22:27:37.686Z,10.25
2022-11-05T22:30:06.205Z,6.53
2022-11-05T22:32:34.348Z,9.00
2022-11-05T22:35:05.437Z,9.55
2022-11-05T22:37:34.242Z,7.35
2022-11-05T22:40:02.841Z,11.75
2022-11-05T22:42:31.389Z,24.60
2022-11-05T22:44:59.922Z,9.53
2022-11-05T22:47:28.167Z,21.05
2022-11-05T22:49:56.446Z,21.62
2022-11-05T22:52:24.838Z,17.42
2022-11-05T22:54:53.071Z,23.55
2022-11-05T22:57:21.563Z,15.93
2022-11-05T22:59:50.345Z,10.48
2022-11-05T23:02:19.144Z,15.10
2022-11-05T23:04:48.900Z,11.00
2022-11-05T23:07:37.950Z,14.33
2022-11-05T23:10:24.793Z,16.37
2022-11-05T23:12:55.404Z,19.15
2022-11-05T23:15:44.565Z,17.10
2022-11-05T23:18:30.878Z,8.90
2022-11-05T23:21:22.706Z,12.75
2022-11-05T23:24:06.108Z,11.18
2022-11-05T23:26:50.136Z,10.63
2022-11-05T23:29:19.532Z,11.10
2022-11-05T23:32:06.119Z,12.20
2022-11-05T23:34:34.343Z,9.30
2022-11-05T23:37:20.249Z,7.78
2022-11-05T23:39:48.512Z,6.67
2022-11-05T23:42:34.880Z,8.48
2022-11-05T23:45:22.047Z,9.53
2022-11-05T23:48:08.547Z,10.38
2022-11-05T23:50:39.773Z,9.73
2022-11-05T23:53:06.614Z,7.08
2022-11-05T23:55:34.879Z,11.10
2022-11-05T23:58:03.175Z,5.53
